Terminal Aerodrome Forecast
Issued by NWS

Current Version | Previous Version | Text Only | Print | Product List | Glossary On
Versions: 1 2 3 4 5 6 7 8 9 10 11 12 13
779
FTUS43 KMPX 080537
TAFRWF
TAF
KRWF 080537Z 0806/0906 32025G35KT 5SM -SN BLSN OVC035
      TEMPO 0806/0810 2SM -SN BLSN OVC020
     FM081200 33026G35KT 2SM BLSN OVC025
     FM081700 33024G32KT P6SM BKN025
     FM090300 32018G26KT P6SM BKN025=

USA.gov is the U.S. government's official web portal to all federal, state and local government web resources and services.